Archie Moore (175, 176) Station Data

Red Flag Warning: No
Fire Weather Zone: 250
SDGE Region: Ramona
Lat/Lon: 33.04/-116.958

Observations

Time Wind Speed/Gust Temp(F) RH Fuel Moist Fuel Temp(F) Dewpt(F) Tmax(F) Tmin(F) Accum Precip 10-min Precip SL Press(mb)
3/29 8:00am 278 2 G 3 63° 23% - - 24° 65.4° 46.5° - - 1014.0
3/29 7:50am 251 1 G 3 60° 27% - - 26° 65.4° 46.5° - - 1014.0
3/29 7:40am 311 1 G 4 56° 39% - - 31° 65.4° 46.5° - - 1015.0
3/29 7:30am 79 2 G 5 61° 31% - - 29° 65.4° 46.5° - - 1014.0
3/29 7:20am 132 2 G 4 64° 21% - - 23° 65.4° 46.5° - - 1013.0
3/29 7:10am 273 3 G 5 59° 26% - - 24° 63.3° 46.5° - - 1014.0
3/29 7:00am 62 1 G 5 57° 33% - - 27° 62.1° 46.5° - - 1014.0
3/29 6:50am 54 1 G 4 57° 31% - - 26° 62.1° 46.5° - - 1014.0
3/29 6:40am 287 1 G 4 50° 50% - - 32° 62.1° 46.5° - - 1014.0
3/29 6:30am 75 3 G 6 49° 60% - - 36° 62.1° 46.5° - - 1014.0
3/29 6:20am 326 1 G 4 59° 27% - - 25° 62.1° 52.4° - - 1013.0
3/29 6:10am 334 0 G 1 58° 28% - - 25° 62.1° 52.4° - - 1013.0
3/29 6:00am 199 1 G 3 58° 29% - - 26° 62.1° 52.4° - - 1013.0
3/29 5:50am 215 1 G 3 58° 31% - - 27° 62.1° 52.4° - - 1013.0
3/29 5:40am 165 1 G 2 60° 26% - - 26° 62.1° 52.4° - - 1013.0
3/29 5:30am 263 2 G 4 58° 30% - - 27° 62.1° 52.4° - - 1013.0
3/29 5:20am 270 3 G 5 53° 43% - - 31° 62.1° 52.4° - - 1014.0
3/29 5:10am 101 3 G 4 55° 40% - - 31° 62.1° 52.6° - - 1013.0
3/29 5:00am 76 2 G 4 61° 28% - - 27° 62.1° 52.6° - - 1013.0
3/29 4:50am 275 2 G 6 60° 29% - - 27° 61.5° 52.6° - - 1013.0
3/29 4:40am 285 3 G 5 57° 37% - - 31° 61.4° 52.6° - - 1013.0
3/29 4:30am 266 1 G 3 53° 48% - - 34° 61.4° 52.6° - - 1014.0
3/29 4:20am 72 1 G 2 55° 48% - - 35° 61.4° 52.9° - - 1014.0
3/29 4:10am 62 3 G 4 57° 40% - - 33° 61.4° 53.4° - - 1013.0
3/29 4:00am 8 2 G 4 60° 32% - - 30° 61.4° 53.4° - - 1013.0
3/29 3:50am 251 1 G 2 60° 32% - - 30° 60.8° 53.4° - - 1013.0
3/29 3:40am 31 2 G 6 59° 35% - - 32° 60.4° 53.4° - - 1013.0
3/29 3:30am 250 0 G 2 57° 42% - - 34° 59.9° 53.4° - - 1013.0
3/29 3:20am 254 3 G 5 54° 56% - - 39° 59.9° 53.4° - - 1014.0
3/29 3:10am 151 2 G 3 55° 55% - - 39° 59.9° 53.6° - - 1014.0
3/29 3:00am 88 2 G 3 58° 48% - - 38° 59.9° 53.6° - - 1013.0
3/29 2:50am 154 1 G 2 59° 44% - - 37° 59.9° 53.6° - - 1013.0
3/29 2:40am 203 1 G 4 59° 45% - - 38° 59.9° 53.6° - - 1013.0
3/29 2:30am 239 2 G 3 57° 59% - - 42° 58.5° 53.6° - - 1014.0
3/29 2:20am 236 2 G 4 56° 63% - - 43° 58.5° 53.6° - - 1014.0
3/29 2:10am 316 1 G 3 55° 64% - - 43° 58.5° 53.6° - - 1014.0
3/29 2:00am 290 1 G 4 54° 66% - - 43° 58.5° 53.6° - - 1014.0
3/29 1:50am 251 2 G 3 54° 64% - - 43° 58.5° 54° - - 1014.0
3/29 1:40am 202 1 G 2 55° 63% - - 42° 58.5° 54.3° - - 1014.0
3/29 1:30am 94 2 G 3 55° 61% - - 42° 58.5° 54.3° - - 1014.0
3/29 1:20am 58 2 G 5 57° 57% - - 42° 58.5° 54.3° - - 1014.0
3/29 1:10am 309 0 G 2 58° 57% - - 43° 58.5° 54.3° - - 1014.0
3/29 1:00am 331 0 G 1 57° 58% - - 42° 58.5° 54.3° - - 1014.0
3/29 12:50am 49 1 G 3 57° 57% - - 42° 58.5° 54.3° - - 1014.0
3/29 12:40am 113 1 G 3 58° 57% - - 43° 58.5° 54.3° - - 1014.0
3/29 12:30am 246 1 G 3 56° 63% - - 43° 56.7° 54.3° - - 1014.0
3/29 12:20am 251 2 G 3 55° 65% - - 43° 55.7° 54.3° - - 1014.0
3/29 12:10am 158 1 G 3 55° 64% - - 43° 55.7° 54.4° - - 1014.0
3/29 12:00am 88 3 G 4 56° 63% - - 43° 73.4° 44.4° - - 1014.0
3/28 11:50pm 36 2 G 3 55° 63% - - 43° 73.4° 44.4° - - 1014.0
3/28 11:40pm 135 2 G 4 56° 60% - - 42° 73.4° 44.4° - - 1014.0
3/28 11:30pm 83 2 G 3 57° 58% - - 43° 73.4° 44.4° - - 1014.0
3/28 11:20pm 88 2 G 4 58° 57% - - 42° 73.4° 44.4° - - 1014.0
3/28 11:10pm 117 1 G 3 57° 57% - - 42° 73.4° 44.4° - - 1014.0
3/28 11:00pm 195 2 G 3 56° 55% - - 40° 73.4° 44.4° - - 1014.0
3/28 10:50pm 201 2 G 3 56° 51% - - 39° 73.4° 44.4° - - 1014.0
3/28 10:40pm 144 2 G 3 57° 49% - - 38° 73.4° 44.4° - - 1014.0
3/28 10:30pm 103 1 G 3 58° 48% - - 38° 73.4° 44.4° - - 1014.0
3/28 10:20pm 249 0 G 1 57° 50% - - 38° 73.4° 44.4° - - 1014.0
3/28 10:10pm 0 0 G 0 57° 51% - - 39° 73.4° 44.4° - - 1014.0
3/28 10:00pm 0 0 G 0 57° 50% - - 38° 73.4° 44.4° - - 1014.0
3/28 9:50pm 134 2 G 3 58° 47% - - 37° 73.4° 44.4° - - 1014.0
3/28 9:40pm 107 0 G 2 59° 44% - - 36° 73.4° 44.4° - - 1014.0
3/28 9:30pm 118 0 G 2 59° 49% - - 39° 73.4° 44.4° - - 1014.0
3/28 9:20pm 276 1 G 2 58° 50% - - 39° 73.4° 44.4° - - 1014.0
3/28 9:10pm 177 1 G 2 59° 46% - - 39° 73.4° 44.4° - - 1014.0
3/28 9:00pm 251 1 G 3 59° 48% - - 39° 73.4° 44.4° - - 1014.0
3/28 8:50pm 232 2 G 3 58° 49% - - 39° 73.4° 44.4° - - 1014.0
3/28 8:40pm 267 1 G 3 62° 41% - - 38° 73.4° 44.4° - - 1013.0
3/28 8:30pm 328 2 G 3 61° 42% - - 38° 73.4° 44.4° - - 1013.0
3/28 8:20pm 287 2 G 3 61° 45% - - 39° 73.4° 44.4° - - 1013.0
3/28 8:10pm 253 2 G 3 61° 45% - - 40° 73.4° 44.4° - - 1013.0
3/28 8:00pm 299 3 G 6 61° 45% - - 40° 73.4° 44.4° - - 1013.0
3/28 7:50pm 259 2 G 4 60° 51% - - 41° 73.4° 44.4° - - 1013.0
3/28 7:40pm 259 4 G 5 61° 49% - - 41° 73.4° 44.4° - - 1013.0
3/28 7:30pm 271 3 G 4 62° 47% - - 41° 73.4° 44.4° - - 1013.0
3/28 7:20pm 262 3 G 5 62° 45% - - 41° 73.4° 44.4° - - 1012.0
3/28 7:10pm 259 4 G 7 62° 45% - - 41° 73.4° 44.4° - - 1012.0
3/28 7:00pm 279 5 G 8 63° 44% - - 41° 73.4° 44.4° - - 1012.0
3/28 6:50pm 262 5 G 8 64° 42% - - 40° 73.4° 44.4° - - 1012.0
3/28 6:40pm 250 6 G 10 64° 42% - - 41° 73.4° 44.4° - - 1012.0
3/28 6:30pm 253 6 G 8 65° 42% - - 41° 73.4° 44.4° - - 1012.0
3/28 6:20pm 260 7 G 11 65° 44% - - 42° 73.4° 44.4° - - 1012.0
3/28 6:10pm 281 8 G 12 65° 43% - - 43° 73.4° 44.4° - - 1011.0
3/28 6:00pm 269 8 G 13 66° 43% - - 43° 73.4° 44.4° - - 1011.0
3/28 5:50pm 277 6 G 9 67° 41% - - 42° 73.4° 44.4° - - 1011.0
3/28 5:40pm 271 9 G 14 66° 41% - - 42° 73.4° 44.4° - - 1011.0
3/28 5:30pm 274 11 G 16 67° 39% - - 42° 73.4° 44.4° - - 1011.0
3/28 5:20pm 271 9 G 15 68° 39% - - 42° 73.4° 44.4° - - 1011.0
3/28 5:10pm 246 11 G 15 68° 39% - - 42° 73.4° 44.4° - - 1011.0
3/28 5:00pm 258 8 G 12 69° 39% - - 43° 73.4° 44.4° - - 1011.0
3/28 4:50pm 253 9 G 14 69° 37% - - 42° 73.4° 44.4° - - 1011.0
3/28 4:40pm 269 10 G 14 69° 37% - - 42° 73.4° 44.4° - - 1010.0
3/28 4:30pm 272 10 G 14 70° 36% - - 42° 73.4° 44.4° - - 1010.0
3/28 4:20pm 268 9 G 12 70° 37% - - 42° 73.4° 44.4° - - 1010.0
3/28 4:10pm 269 10 G 15 70° 37% - - 42° 73.4° 44.4° - - 1010.0
3/28 4:00pm 272 10 G 14 70° 34% - - 41° 73.4° 44.4° - - 1011.0
3/28 3:50pm 269 11 G 16 70° 34% - - 41° 73.4° 44.4° - - 1011.0
3/28 3:40pm 274 8 G 12 71° 34% - - 42° 73.4° 44.4° - - 1011.0
3/28 3:30pm 274 7 G 12 72° 33% - - 42° 73.4° 44.4° - - 1011.0
3/28 3:20pm 280 6 G 12 72° 36% - - 43° 72.7° 44.4° - - 1011.0
3/28 3:10pm 266 6 G 11 71° 37% - - 43° 72.7° 44.4° - - 1011.0
3/28 3:00pm 291 8 G 12 71° 39% - - 45° 72.7° 44.4° - - 1011.0
3/28 2:50pm 276 6 G 12 72° 36% - - 44° 72.7° 44.4° - - 1011.0
3/28 2:40pm 292 5 G 10 71° 35% - - 42° 72.4° 44.4° - - 1011.0
3/28 2:30pm 261 6 G 10 71° 39% - - 44° 71.8° 44.4° - - 1011.0
3/28 2:20pm 288 6 G 12 70° 40% - - 45° 71.8° 44.4° - - 1012.0
3/28 2:10pm 279 7 G 12 70° 40% - - 45° 71.8° 44.4° - - 1012.0
3/28 2:00pm 268 7 G 13 70° 40% - - 44° 71.2° 44.4° - - 1012.0
3/28 1:50pm 266 8 G 13 70° 38% - - 43° 71.2° 44.4° - - 1012.0
3/28 1:40pm 267 9 G 14 70° 35% - - 41° 71.2° 44.4° - - 1012.0
3/28 1:30pm 264 8 G 13 70° 33% - - 39° 71.2° 44.4° - - 1012.0
3/28 1:20pm 278 6 G 12 70° 32% - - 39° 71.2° 44.4° - - 1012.0
3/28 1:10pm 261 6 G 12 70° 30% - - 37° 71° 44.4° - - 1012.0
3/28 1:00pm 269 6 G 12 70° 28% - - 36° 71° 44.4° - - 1012.0
3/28 12:50pm 313 5 G 11 71° 26% - - 34° 71° 44.4° - - 1012.0
3/28 12:40pm 293 4 G 9 70° 25% - - 32° 70.3° 44.4° - - 1013.0
3/28 12:30pm 279 5 G 11 70° 25% - - 32° 70.1° 44.4° - - 1013.0
3/28 12:20pm 268 6 G 12 69° 25% - - 32° 70.1° 44.4° - - 1013.0
3/28 12:10pm 264 8 G 12 68° 26% - - 32° 68.5° 44.4° - - 1013.0
3/28 12:00pm 284 7 G 12 67° 29% - - 34° 68.3° 44.4° - - 1013.0
3/28 11:50am 269 8 G 12 67° 31% - - 35° 67.6° 44.4° - - 1013.0
3/28 11:40am 259 8 G 14 67° 34% - - 37° 67.5° 44.4° - - 1013.0
3/28 11:30am 247 8 G 12 66° 37% - - 39° 67.1° 44.4° - - 1013.0
3/28 11:20am 254 7 G 11 66° 40% - - 41° 66.6° 44.4° - - 1013.0
3/28 11:10am 263 7 G 11 66° 40% - - 41° 66.6° 44.4° - - 1014.0
3/28 11:00am 259 7 G 11 65° 41% - - 41° 66.6° 44.4° - - 1014.0
3/28 10:50am 266 10 G 14 65° 41% - - 41° 66.6° 44.4° - - 1014.0
3/28 10:40am 268 6 G 11 66° 39% - - 40° 66.6° 44.4° - - 1014.0
3/28 10:30am 255 6 G 10 64° 44% - - 42° 65.8° 44.4° - - 1014.0
3/28 10:20am 275 6 G 12 65° 44% - - 42° 65.8° 44.4° - - 1014.0
3/28 10:10am 293 4 G 8 64° 43% - - 41° 65.8° 44.4° - - 1013.0
3/28 10:00am 306 4 G 6 64° 45% - - 42° 65.8° 44.4° - - 1013.0
3/28 9:50am 319 3 G 5 65° 47% - - 44° 65.8° 44.4° - - 1013.0
3/28 9:40am 350 1 G 3 65° 45% - - 43° 65.5° 44.4° - - 1013.0
3/28 9:30am 288 1 G 2 63° 48% - - 43° 64.3° 44.4° - - 1013.0
3/28 9:20am 217 1 G 3 60° 56% - - 45° 61.9° 44.4° - - 1014.0
3/28 9:10am 219 3 G 4 58° 66% - - 47° 58.5° 44.4° - - 1014.0
3/28 9:00am 175 2 G 4 57° 69% - - 47° 57.7° 44.4° - - 1014.0
3/28 8:50am 148 1 G 2 56° 72% - - 47° 57° 44.4° - - 1014.0
3/28 8:40am 126 1 G 3 54° 75% - - 46° 55.1° 44.4° - - 1014.0
3/28 8:30am 125 2 G 3 53° 79% - - 46° 53.4° 44.4° - - 1014.0
3/28 8:20am 82 2 G 3 51° 86% - - 47° 53.4° 44.4° - - 1014.0
3/28 8:10am 71 3 G 4 51° 85% - - 46° 53.4° 44.4° - - 1014.0
3/28 8:00am 109 2 G 5 52° 79% - - 46° 53.4° 44.4° - - 1014.0
3/28 7:50am 239 1 G 2 50° 82% - - 45° 53.4° 44.4° - - 1014.0
3/28 7:40am 263 2 G 3 48° 87% - - 45° 53.4° 44.4° - - 1014.0
3/28 7:30am 266 3 G 4 46° 92% - - 44° 53.4° 44.4° - - 1014.0
3/28 7:20am 244 2 G 4 45° 91% - - 42° 53.4° 44.4° - - 1015.0
3/28 7:10am 119 2 G 3 45° 89% - - 42° 53.4° 44.5° - - 1014.0
3/28 7:00am 83 2 G 3 48° 91% - - 45° 53.4° 45.9° - - 1014.0
3/28 6:50am 102 1 G 3 47° 91% - - 44° 53.4° 45.9° - - 1014.0
3/28 6:40am 295 3 G 5 48° 89% - - 45° 53.4° 46.4° - - 1014.0
3/28 6:30am 65 1 G 3 47° 85% - - 43° 53.4° 46.4° - - 1014.0
3/28 6:20am 39 2 G 5 50° 83% - - 45° 53.4° 46.5° - - 1014.0
3/28 6:10am 281 2 G 3 50° 85% - - 46° 53.4° 46.5° - - 1014.0
3/28 6:00am 194 0 G 2 50° 86% - - 46° 53.4° 46.5° - - 1014.0